Time;durP1;ratioP1;P1;durP2;ratioP2;P2;SDS_P1;SDS_P2;PMS_P1;PMS_P2;Temp;Humidity;BMP_temperature;BMP_pressure;BME280_temperature;BME280_humidity;BME280_pressure;Samples;Min_cycle;Max_cycle;Signal;HPM_P1;HPM_P2
2023/12/08 00:01:21;;;;;;;2.47;1.57;;;12.70;99.90;;;13.00;46.41;100486.34;4923747;27;97244;-52
2023/12/08 00:03:47;;;;;;;2.37;1.63;;;12.80;99.90;;;13.02;46.62;100487.16;4923558;28;102878;-51
2023/12/08 00:06:15;;;;;;;3.53;2.33;;;12.90;99.90;;;12.87;44.81;100496.66;4927397;28;97052;-48
2023/12/08 00:08:41;;;;;;;2.93;1.70;;;12.80;99.90;;;12.86;46.63;100484.34;4926479;27;98179;-48
2023/12/08 00:11:07;;;;;;;2.93;2.00;;;12.70;99.90;;;13.11;47.24;100473.44;4929543;28;97631;-51
2023/12/08 00:13:34;;;;;;;2.67;1.87;;;12.90;99.90;;;13.06;46.41;100459.56;4925855;28;107952;-51
2023/12/08 00:16:00;;;;;;;2.60;1.73;;;13.00;99.90;;;13.26;46.08;100456.81;4938361;28;103083;-48
2023/12/08 00:18:26;;;;;;;5.27;3.03;;;13.30;99.90;;;13.38;46.09;100445.63;4932608;28;98648;-50
2023/12/08 00:20:52;;;;;;;3.00;1.70;;;13.40;99.90;;;13.58;45.92;100441.09;4935600;27;97465;-52
2023/12/08 00:23:18;;;;;;;1.77;1.33;;;13.70;99.90;;;13.68;45.58;100429.09;4915809;28;98266;-48
2023/12/08 00:25:43;;;;;;;2.50;1.80;;;13.80;99.90;;;13.84;45.10;100411.44;4916815;28;98257;-49
2023/12/08 00:28:09;;;;;;;2.67;1.83;;;14.10;99.90;;;13.86;45.24;100404.25;4926362;28;97236;-50
2023/12/08 00:30:35;;;;;;;1.77;1.40;;;14.10;99.90;;;13.95;45.20;100401.13;4929873;27;97252;-53
2023/12/08 00:33:04;;;;;;;4.53;3.23;;;14.10;99.90;;;13.83;39.18;100417.69;4934630;28;98595;-51
2023/12/08 00:35:30;;;;;;;1.80;1.50;;;14.00;99.50;;;13.28;44.84;100417.88;4932534;27;100491;-55
2023/12/08 00:37:57;;;;;;;2.30;1.80;;;13.20;99.90;;;13.52;45.14;100409.63;4921361;28;97499;-49
2023/12/08 00:40:22;;;;;;;3.90;2.67;;;13.50;99.90;;;13.51;38.79;100405.25;4921238;28;98903;-51
2023/12/08 00:42:48;;;;;;;3.67;1.90;;;13.60;99.90;;;13.67;45.28;100414.13;4927228;27;99097;-52
2023/12/08 00:45:15;;;;;;;4.40;2.03;;;13.70;99.90;;;13.77;44.80;100417.16;4933259;28;98263;-49
2023/12/08 00:47:41;;;;;;;3.10;1.50;;;13.90;99.90;;;13.88;45.21;100410.31;4931055;27;97300;-50
2023/12/08 00:50:08;;;;;;;4.00;2.57;;;14.10;99.90;;;13.89;39.39;100398.81;4923255;28;98017;-48
2023/12/08 00:52:34;;;;;;;2.80;1.70;;;14.10;99.90;;;13.99;44.66;100388.53;4924780;28;97176;-54
2023/12/08 00:55:01;;;;;;;3.20;1.50;;;14.20;99.90;;;14.04;44.68;100396.28;4929261;28;97518;-50
2023/12/08 00:57:27;;;;;;;4.10;2.10;;;14.20;99.90;;;14.11;43.54;100410.91;4924761;27;97032;-48
2023/12/08 00:59:52;;;;;;;1.47;1.20;;;14.30;99.90;;;14.13;44.66;100396.59;4926660;28;98045;-50
2023/12/08 01:02:18;;;;;;;5.87;2.47;;;14.40;99.90;;;14.08;42.80;100419.88;4933086;28;115755;-49
2023/12/08 01:04:44;;;;;;;8.20;3.57;;;14.40;99.90;;;14.08;39.92;100397.81;4928336;28;97271;-52
2023/12/08 01:07:10;;;;;;;4.17;2.67;;;14.40;99.60;;;13.97;39.38;100375.38;4919238;28;97247;-53
2023/12/08 01:09:36;;;;;;;3.63;2.63;;;14.20;99.90;;;14.04;41.51;100377.72;4934966;27;99975;-51
2023/12/08 01:12:03;;;;;;;2.77;1.63;;;14.20;99.90;;;14.15;44.31;100372.66;4930468;27;97077;-53
2023/12/08 01:14:29;;;;;;;2.57;2.00;;;14.40;99.90;;;14.06;44.41;100383.78;4928376;27;98276;-49
2023/12/08 01:16:55;;;;;;;2.10;1.30;;;14.30;99.90;;;14.06;44.46;100389.09;4914707;28;97275;-52
2023/12/08 01:19:20;;;;;;;2.30;1.90;;;14.30;99.90;;;14.00;42.02;100380.50;4930645;27;97982;-55
2023/12/08 01:21:46;;;;;;;4.87;1.73;;;14.20;99.90;;;13.98;44.41;100369.13;4929836;28;98328;-51
2023/12/08 01:24:12;;;;;;;3.10;1.90;;;14.10;99.90;;;14.07;44.36;100364.28;4940061;27;108482;-50
2023/12/08 01:26:46;;;;;;;2.57;1.87;;;14.30;99.90;;;13.86;40.30;100367.13;4948198;27;97422;-51
2023/12/08 01:29:12;;;;;;;6.23;3.10;;;14.00;99.90;;;13.90;40.00;100389.91;4930959;27;96986;-50
2023/12/08 01:31:38;;;;;;;4.70;2.53;;;14.10;99.90;;;13.78;38.82;100401.16;4932850;28;97664;-52
2023/12/08 01:34:04;;;;;;;6.03;3.30;;;14.00;99.20;;;13.78;43.05;100379.09;4942778;28;103806;-49
2023/12/08 01:36:30;;;;;;;7.10;3.13;;;13.90;99.90;;;13.68;43.30;100371.63;4937102;27;97518;-49
2023/12/08 01:38:55;;;;;;;3.30;1.97;;;13.80;99.90;;;13.67;44.44;100372.56;4942613;27;97511;-49
2023/12/08 01:41:21;;;;;;;5.03;3.37;;;13.80;99.90;;;13.76;44.44;100365.94;4934198;28;97407;-49
2023/12/08 01:43:47;;;;;;;3.40;2.13;;;13.90;99.90;;;13.83;44.62;100361.16;4929453;28;106547;-51
2023/12/08 01:46:16;;;;;;;2.47;1.77;;;14.00;99.90;;;13.70;44.75;100371.53;4948931;28;97163;-48
2023/12/08 01:48:42;;;;;;;3.10;2.30;;;13.80;99.90;;;13.75;43.75;100364.22;4932303;28;97147;-48
2023/12/08 01:51:14;;;;;;;5.13;3.47;;;13.90;99.90;;;13.75;43.71;100360.72;4939913;28;98496;-48
2023/12/08 01:53:41;;;;;;;4.03;2.73;;;14.00;99.90;;;13.82;43.41;100359.44;4929795;28;97913;-48
2023/12/08 01:56:08;;;;;;;8.50;4.97;;;14.00;99.90;;;13.62;37.20;100352.56;4947041;28;97265;-50
2023/12/08 01:58:35;;;;;;;8.97;4.20;;;13.90;97.30;;;13.57;41.76;100354.56;4932492;28;97031;-50
2023/12/08 02:01:07;;;;;;;4.70;3.13;;;13.70;99.90;;;13.53;40.81;100364.50;4929125;28;97170;-49
2023/12/08 02:03:33;;;;;;;2.47;1.50;;;13.60;99.90;;;13.50;44.42;100358.50;4925962;28;101208;-49
2023/12/08 02:06:03;;;;;;;5.73;3.33;;;13.50;99.90;;;13.43;41.98;100351.78;4930431;28;96966;-50
2023/12/08 02:08:29;;;;;;;7.93;3.20;;;13.50;99.90;;;13.41;39.80;100349.22;4926610;28;97535;-50
2023/12/08 02:10:55;;;;;;;5.77;2.33;;;13.40;99.50;;;13.48;42.63;100339.19;4936656;28;98189;-49
2023/12/08 02:13:24;;;;;;;7.90;4.03;;;13.40;99.90;;;13.52;40.54;100351.31;4923358;28;97005;-50
2023/12/08 02:15:59;;;;;;;6.07;3.90;;;13.70;99.90;;;13.28;43.61;100364.88;4926402;28;97317;-50
2023/12/08 02:18:25;;;;;;;8.07;4.40;;;13.40;99.90;;;13.00;41.18;100360.09;4929561;28;97553;-50
2023/12/08 02:20:52;;;;;;;3.13;2.20;;;13.00;99.90;;;13.09;45.90;100358.81;4933185;28;98322;-51
2023/12/08 02:23:17;;;;;;;7.00;4.13;;;12.90;99.90;;;12.91;44.09;100338.56;4939136;28;97222;-50
2023/12/08 02:25:44;;;;;;;5.33;3.40;;;12.80;99.90;;;13.11;45.15;100356.94;4938797;28;97178;-52
2023/12/08 02:28:10;;;;;;;3.97;1.60;;;13.00;99.90;;;13.17;46.23;100338.09;4928275;28;97473;-48
2023/12/08 02:30:36;;;;;;;5.93;3.50;;;13.00;99.90;;;13.25;45.49;100338.56;4937435;27;98606;-57
2023/12/08 02:33:17;;;;;;;6.13;3.77;;;13.30;99.90;;;13.13;42.38;100331.22;4945860;28;101262;-48
2023/12/08 02:35:45;;;;;;;2.10;1.60;;;13.20;99.90;;;13.25;46.02;100343.00;4945911;28;97131;-50
2023/12/08 02:38:18;;;;;;;3.63;1.67;;;13.10;99.90;;;13.48;45.81;100333.88;4935936;28;97254;-49
2023/12/08 02:40:44;;;;;;;3.00;2.07;;;13.50;99.90;;;13.55;45.33;100329.97;4938406;28;97416;-51
2023/12/08 02:43:09;;;;;;;5.83;2.90;;;13.60;99.90;;;13.48;44.02;100329.44;4933748;27;97725;-49
2023/12/08 02:45:35;;;;;;;5.30;3.10;;;13.50;99.90;;;13.56;43.59;100321.91;4937836;28;96902;-51
2023/12/08 02:48:01;;;;;;;3.53;2.10;;;13.60;99.90;;;13.51;45.09;100317.81;4937887;28;106850;-49
2023/12/08 02:50:27;;;;;;;2.63;1.80;;;13.50;99.90;;;13.60;43.63;100322.63;4960381;28;100442;-49
2023/12/08 02:52:53;;;;;;;2.93;1.40;;;13.70;99.90;;;13.69;45.18;100314.16;4931627;28;97255;-51
2023/12/08 02:55:18;;;;;;;3.37;2.47;;;13.70;99.90;;;13.65;44.30;100315.28;4936184;28;97462;-49
2023/12/08 02:57:44;;;;;;;2.37;1.73;;;13.70;99.90;;;13.74;45.02;100311.25;4930990;27;97204;-48
2023/12/08 03:00:11;;;;;;;2.23;1.67;;;13.80;99.90;;;13.85;44.79;100295.63;4929884;28;98689;-50
2023/12/08 03:02:37;;;;;;;2.70;1.87;;;14.00;99.90;;;13.89;44.37;100282.16;4933719;28;103329;-51
2023/12/08 03:05:03;;;;;;;4.43;2.20;;;14.10;99.90;;;13.97;44.05;100269.31;4933340;28;101197;-50
2023/12/08 03:07:29;;;;;;;2.70;1.60;;;14.20;99.90;;;14.10;44.50;100263.31;4931359;28;97529;-51
2023/12/08 03:09:55;;;;;;;5.10;3.07;;;14.40;99.90;;;14.01;39.35;100246.13;4938944;27;97846;-48
2023/12/08 03:12:21;;;;;;;2.27;1.37;;;14.40;99.90;;;14.12;44.15;100233.13;4933476;27;99055;-49
2023/12/08 03:14:47;;;;;;;3.33;2.53;;;14.40;99.90;;;14.20;43.87;100243.31;4934646;28;97297;-48
2023/12/08 03:17:13;;;;;;;4.57;2.90;;;14.50;99.90;;;14.03;42.94;100253.97;4932982;28;98498;-49
2023/12/08 03:19:40;;;;;;;2.83;1.90;;;14.30;99.90;;;14.07;44.13;100255.53;4933327;28;97555;-50
2023/12/08 03:22:06;;;;;;;4.33;2.40;;;14.20;99.90;;;13.98;39.80;100249.81;4944866;28;98740;-59
2023/12/08 03:24:32;;;;;;;7.17;4.43;;;14.20;99.90;;;13.85;39.99;100254.06;4936692;28;97442;-59
2023/12/08 03:26:58;;;;;;;3.40;1.73;;;14.00;99.80;;;13.91;42.95;100248.44;4933724;28;97898;-48
2023/12/08 03:29:23;;;;;;;2.83;1.70;;;13.90;99.90;;;13.94;44.51;100248.28;4939908;28;97579;-49
2023/12/08 03:31:49;;;;;;;3.53;2.67;;;14.00;99.90;;;13.96;40.95;100251.69;4935538;27;97466;-50
2023/12/08 03:34:15;;;;;;;2.43;1.60;;;14.10;99.90;;;14.03;44.07;100251.34;4934613;28;97015;-49
2023/12/08 03:36:41;;;;;;;5.23;3.20;;;14.20;99.90;;;13.73;43.67;100243.28;4928423;28;106883;-52
2023/12/08 03:39:07;;;;;;;1.93;1.37;;;13.80;99.90;;;13.92;44.57;100244.00;4940367;28;97482;-52
2023/12/08 03:41:32;;;;;;;2.63;1.60;;;13.90;99.90;;;13.79;44.99;100249.13;4933051;28;97161;-50
2023/12/08 03:43:58;;;;;;;2.80;1.80;;;13.80;99.90;;;13.90;44.80;100235.28;4938690;28;97140;-48
2023/12/08 03:46:24;;;;;;;3.10;1.87;;;13.90;99.90;;;13.98;44.54;100239.19;4940228;28;97485;-49
2023/12/08 03:48:51;;;;;;;3.27;1.73;;;14.10;99.90;;;13.79;41.41;100238.53;4931758;27;116338;-51
2023/12/08 03:51:16;;;;;;;4.90;3.33;;;13.90;99.90;;;13.34;44.43;100237.44;4927684;28;97156;-51
2023/12/08 03:53:42;;;;;;;4.73;2.20;;;13.20;99.90;;;13.32;45.28;100239.31;4939107;27;97620;-51
2023/12/08 03:56:08;;;;;;;3.53;1.70;;;13.10;99.90;;;13.47;45.83;100227.03;4926263;28;97343;-48
2023/12/08 03:58:34;;;;;;;6.03;3.70;;;13.30;99.90;;;13.42;43.94;100228.22;4937377;28;97722;-52
2023/12/08 04:01:00;;;;;;;2.33;2.13;;;13.30;99.90;;;13.30;45.93;100233.22;4936830;27;97520;-51
2023/12/08 04:03:26;;;;;;;2.63;1.90;;;13.10;99.90;;;13.26;46.23;100229.03;4935038;27;98489;-48
2023/12/08 04:05:52;;;;;;;4.27;2.90;;;13.00;99.90;;;13.02;45.46;100232.97;4938945;27;101786;-52
2023/12/08 04:08:18;;;;;;;2.37;1.80;;;12.70;99.90;;;12.68;46.28;100237.34;4939450;28;103951;-50
2023/12/08 04:10:44;;;;;;;3.87;1.90;;;12.20;99.90;;;12.51;46.51;100239.97;4934683;28;97573;-50
2023/12/08 04:13:10;;;;;;;1.93;1.70;;;12.00;99.90;;;12.57;47.79;100234.38;4926213;28;97155;-51
2023/12/08 04:15:36;;;;;;;4.93;2.87;;;12.00;99.90;;;12.34;47.90;100234.69;4949299;28;96929;-49
2023/12/08 04:18:02;;;;;;;4.30;2.90;;;11.70;99.90;;;12.21;47.44;100232.63;4939108;28;101835;-51
2023/12/08 04:20:28;;;;;;;4.37;2.33;;;11.70;99.90;;;12.27;46.29;100246.47;4929138;27;97013;-48
2023/12/08 04:22:54;;;;;;;3.20;2.37;;;11.70;99.90;;;12.40;48.03;100237.00;4939098;27;97055;-49
2023/12/08 04:25:20;;;;;;;2.57;1.67;;;12.00;99.90;;;12.75;47.36;100233.47;4934340;28;97965;-53
2023/12/08 04:27:46;;;;;;;1.93;1.60;;;12.50;99.90;;;12.92;47.01;100235.22;4925479;28;97942;-52
2023/12/08 04:30:12;;;;;;;3.07;1.90;;;12.80;99.90;;;12.89;47.06;100253.06;4932896;28;97233;-51
2023/12/08 04:32:38;;;;;;;7.13;3.30;;;12.70;99.90;;;12.68;46.57;100247.91;4936300;28;97213;-50
2023/12/08 04:35:04;;;;;;;5.63;3.57;;;12.60;99.90;;;12.49;45.13;100249.78;4923338;28;97488;-48
2023/12/08 04:37:30;;;;;;;4.87;3.13;;;12.20;99.90;;;12.26;46.41;100255.34;4935957;28;101660;-50
2023/12/08 04:39:56;;;;;;;4.17;2.53;;;11.80;99.90;;;11.96;48.28;100263.81;4918425;28;98937;-50
2023/12/08 04:42:22;;;;;;;7.43;4.23;;;11.40;99.90;;;11.75;47.74;100270.09;4926112;27;97859;-54
2023/12/08 04:44:48;;;;;;;8.77;4.60;;;11.20;99.90;;;11.48;46.67;100283.63;4929091;28;97184;-51
2023/12/08 04:47:14;;;;;;;6.30;4.23;;;11.00;99.90;;;11.16;50.37;100297.41;4938979;28;102817;-52
2023/12/08 04:49:39;;;;;;;9.23;4.27;;;10.60;99.90;;;10.77;50.11;100306.09;4925220;28;97347;-52
2023/12/08 04:52:05;;;;;;;8.33;4.50;;;10.10;99.90;;;10.39;50.04;100311.16;4942757;28;96948;-52
2023/12/08 04:54:31;;;;;;;9.30;5.67;;;9.80;99.90;;;10.29;53.29;100315.13;4940961;28;97316;-49
2023/12/08 04:56:57;;;;;;;8.57;4.93;;;9.60;99.90;;;10.14;51.99;100315.69;4921710;28;98534;-50
2023/12/08 04:59:23;;;;;;;4.20;2.97;;;9.60;99.90;;;10.04;53.76;100303.78;4925806;28;110583;-48
2023/12/08 05:01:52;;;;;;;12.17;5.60;;;9.40;99.90;;;9.72;52.69;100312.91;4940130;28;97284;-53
2023/12/08 05:04:21;;;;;;;9.60;5.03;;;9.30;99.90;;;9.75;53.33;100289.94;4930286;27;97152;-51
2023/12/08 05:06:47;;;;;;;9.03;4.53;;;9.30;99.90;;;10.13;51.61;100287.63;4941789;28;98084;-52
2023/12/08 05:09:13;;;;;;;4.17;2.63;;;9.70;99.90;;;10.58;54.13;100278.78;4920067;27;111378;-49
2023/12/08 05:11:39;;;;;;;4.93;2.87;;;10.20;99.90;;;10.49;53.86;100279.16;4948188;28;97401;-49
2023/12/08 05:14:05;;;;;;;5.87;4.03;;;10.10;99.90;;;10.63;50.92;100271.53;4939350;28;97458;-49
2023/12/08 05:16:31;;;;;;;3.27;2.27;;;10.40;99.90;;;11.16;52.76;100271.03;4934551;28;100257;-50
2023/12/08 05:18:57;;;;;;;3.20;1.90;;;10.80;99.90;;;11.52;51.44;100261.44;4928685;28;97890;-51
2023/12/08 05:21:24;;;;;;;6.23;3.83;;;11.40;99.90;;;11.61;49.80;100247.81;4936299;28;97452;-53
2023/12/08 05:23:50;;;;;;;6.73;3.53;;;11.50;99.90;;;11.87;48.00;100251.06;4928028;28;97247;-50
2023/12/08 05:26:16;;;;;;;8.10;4.47;;;11.80;99.90;;;11.86;46.36;100246.69;4946298;28;97003;-50
2023/12/08 05:28:42;;;;;;;4.20;2.87;;;11.90;99.90;;;12.02;48.32;100255.63;4938575;28;99343;-50
2023/12/08 05:31:07;;;;;;;2.97;2.10;;;11.90;99.90;;;12.02;49.72;100252.97;4938602;28;97730;-54
2023/12/08 05:33:34;;;;;;;8.57;4.77;;;11.80;99.90;;;12.20;45.92;100252.09;4933128;28;101923;-47
2023/12/08 05:36:00;;;;;;;5.77;3.37;;;12.10;99.90;;;12.23;48.51;100239.63;4939147;28;101783;-52
2023/12/08 05:38:25;;;;;;;11.93;5.83;;;12.10;99.90;;;12.11;46.67;100252.50;4946336;28;96964;-51
2023/12/08 05:40:51;;;;;;;2.17;1.80;;;11.90;99.90;;;12.24;49.63;100241.34;4920366;28;99224;-49
2023/12/08 05:43:17;;;;;;;2.50;1.60;;;11.90;99.90;;;12.53;47.91;100248.69;4940572;27;97457;-50
2023/12/08 05:45:43;;;;;;;6.73;3.63;;;12.40;99.90;;;12.36;46.47;100259.25;4928218;28;97142;-48
2023/12/08 05:48:09;;;;;;;10.13;5.27;;;12.30;99.90;;;12.61;47.23;100264.19;4929220;28;98797;-48
2023/12/08 05:50:35;;;;;;;5.17;2.97;;;12.50;99.90;;;12.60;47.43;100255.41;4929552;28;97109;-49
2023/12/08 05:53:01;;;;;;;5.83;3.73;;;12.40;99.90;;;12.46;46.21;100268.47;4931067;28;96922;-50
2023/12/08 05:55:27;;;;;;;8.33;4.87;;;12.30;99.90;;;12.29;47.09;100266.63;4925426;28;97427;-50
2023/12/08 05:57:53;;;;;;;4.77;2.63;;;12.00;99.90;;;12.38;48.31;100260.03;4930565;28;97054;-48
2023/12/08 06:00:20;;;;;;;3.33;2.33;;;12.10;99.90;;;12.45;48.88;100272.03;4933779;28;98694;-50
2023/12/08 06:02:46;;;;;;;8.00;4.23;;;12.10;99.90;;;12.49;47.56;100263.00;4944377;28;97360;-51
2023/12/08 06:05:13;;;;;;;3.80;1.97;;;12.20;99.90;;;12.68;48.69;100269.09;4942312;28;97161;-52
2023/12/08 06:07:42;;;;;;;10.03;5.77;;;12.40;99.90;;;12.68;45.38;100276.19;4931770;28;97375;-58
2023/12/08 06:10:08;;;;;;;3.57;2.03;;;12.60;99.90;;;12.51;47.90;100277.03;4937640;28;97568;-49
2023/12/08 06:12:35;;;;;;;12.23;6.27;;;12.20;99.90;;;12.34;45.18;100275.22;4940933;28;97915;-58
2023/12/08 06:15:01;;;;;;;5.90;4.07;;;12.00;99.90;;;12.14;49.15;100278.81;4948867;28;98638;-52
2023/12/08 06:17:27;;;;;;;3.77;2.03;;;11.70;99.90;;;12.31;48.08;100275.38;4935829;28;97482;-51
2023/12/08 06:19:54;;;;;;;9.67;5.33;;;11.90;99.90;;;12.01;47.16;100290.91;4942169;28;96939;-49
2023/12/08 06:22:20;;;;;;;4.27;1.90;;;11.60;99.90;;;12.28;49.27;100285.22;4943549;28;102762;-50
2023/12/08 06:24:46;;;;;;;7.53;4.00;;;11.80;99.90;;;12.31;47.06;100274.50;4936341;28;99255;-53
2023/12/08 06:27:12;;;;;;;2.90;2.27;;;11.90;99.90;;;12.62;48.92;100268.56;4943792;28;98447;-48
2023/12/08 06:29:38;;;;;;;4.23;2.17;;;12.30;99.90;;;12.72;47.83;100264.50;4932215;28;97104;-53
2023/12/08 06:32:05;;;;;;;2.47;1.93;;;12.50;99.90;;;12.97;47.86;100258.81;4938041;28;96600;-52
2023/12/08 06:34:31;;;;;;;3.00;1.90;;;12.80;99.90;;;13.11;47.38;100261.59;4941009;28;101791;-51
2023/12/08 06:36:56;;;;;;;5.97;3.60;;;13.10;99.90;;;12.89;45.43;100276.91;4935101;28;97343;-51
2023/12/08 06:39:22;;;;;;;2.77;1.90;;;12.80;99.90;;;13.17;47.33;100271.88;4910932;28;97703;-52
2023/12/08 06:41:48;;;;;;;3.50;1.67;;;13.00;99.90;;;13.28;47.27;100274.84;4939883;28;103256;-52
2023/12/08 06:44:14;;;;;;;2.47;1.83;;;13.20;99.90;;;13.30;47.08;100272.97;4930977;28;103931;-53
2023/12/08 06:46:40;;;;;;;2.00;1.77;;;13.20;99.90;;;13.38;46.25;100280.50;4928755;28;97078;-50
2023/12/08 06:49:06;;;;;;;3.70;2.43;;;13.30;99.90;;;13.39;46.45;100283.06;4926524;28;97163;-52
2023/12/08 06:51:35;;;;;;;10.17;4.97;;;13.30;99.90;;;13.16;43.99;100283.38;4937104;28;99805;-52
2023/12/08 06:54:02;;;;;;;9.00;5.83;;;13.00;99.90;;;12.75;45.40;100285.53;4938003;28;101188;-52
2023/12/08 06:56:28;;;;;;;3.77;2.40;;;12.40;99.90;;;12.72;46.64;100283.88;4929916;28;96983;-51
2023/12/08 06:58:54;;;;;;;5.37;4.00;;;12.30;99.90;;;12.58;47.24;100273.13;4945037;28;97438;-52
2023/12/08 07:01:20;;;;;;;2.73;1.93;;;12.30;99.90;;;12.67;48.54;100271.81;4944074;28;96947;-54
2023/12/08 07:03:47;;;;;;;5.43;3.13;;;12.30;99.90;;;12.69;47.75;100276.09;4920349;28;99823;-50
2023/12/08 07:06:13;;;;;;;5.30;3.33;;;12.40;99.90;;;12.59;45.95;100284.59;4935807;28;97178;-51
2023/12/08 07:08:39;;;;;;;3.60;2.13;;;12.40;99.90;;;12.56;48.72;100282.94;4934482;27;97509;-47
2023/12/08 07:11:05;;;;;;;10.37;6.20;;;12.10;99.90;;;12.48;45.77;100287.75;4931484;28;98853;-55
2023/12/08 07:13:31;;;;;;;5.00;3.30;;;12.20;99.90;;;12.37;46.33;100290.06;4928485;28;97422;-50
2023/12/08 07:15:56;;;;;;;7.77;4.23;;;12.00;99.90;;;12.40;46.73;100290.75;4929658;28;97442;-48
2023/12/08 07:18:22;;;;;;;8.50;5.13;;;12.00;99.90;;;12.32;46.43;100292.09;4934889;28;98024;-48
2023/12/08 07:20:48;;;;;;;9.10;4.73;;;11.90;99.90;;;12.27;48.24;100296.72;4934087;28;97412;-49
2023/12/08 07:23:14;;;;;;;8.30;4.60;;;11.70;99.90;;;11.97;47.76;100296.41;4937328;28;99169;-51
2023/12/08 07:25:40;;;;;;;4.27;2.23;;;11.40;99.90;;;12.17;50.05;100298.97;4933575;28;97667;-53
2023/12/08 07:28:06;;;;;;;3.27;1.87;;;11.50;99.90;;;12.05;50.24;100300.41;4926916;28;97301;-49
2023/12/08 07:30:32;;;;;;;2.80;2.00;;;11.40;99.90;;;12.27;49.89;100305.50;4925550;28;97088;-51
2023/12/08 07:32:58;;;;;;;3.37;2.27;;;11.70;99.90;;;12.28;49.24;100306.38;4951021;27;97659;-50
2023/12/08 07:35:24;;;;;;;3.90;2.23;;;11.80;99.90;;;12.33;49.27;100291.16;4923031;28;97229;-49
2023/12/08 07:37:49;;;;;;;5.03;2.00;;;11.90;99.90;;;12.73;49.09;100288.25;4929516;28;99560;-51
2023/12/08 07:40:15;;;;;;;6.70;4.30;;;12.40;99.90;;;12.75;46.44;100282.88;4932122;28;97539;-52
2023/12/08 07:42:43;;;;;;;4.13;2.63;;;12.60;99.90;;;12.91;47.04;100285.59;4944724;27;97444;-53
2023/12/08 07:45:10;;;;;;;5.47;3.03;;;12.70;99.90;;;12.99;47.45;100286.91;4941351;28;101842;-48
2023/12/08 07:47:38;;;;;;;2.23;1.50;;;12.80;99.90;;;13.11;48.02;100290.72;4932824;27;97471;-50
2023/12/08 07:50:07;;;;;;;3.03;2.10;;;12.90;99.90;;;13.32;46.62;100296.75;4935474;28;97408;-49
2023/12/08 07:52:34;;;;;;;5.33;3.27;;;13.30;99.90;;;13.25;45.15;100296.19;4935326;28;102456;-49
2023/12/08 07:55:00;;;;;;;6.57;4.10;;;13.10;99.90;;;13.00;45.48;100290.41;4943151;28;97519;-48
2023/12/08 07:57:25;;;;;;;8.73;4.43;;;12.70;99.90;;;12.82;47.74;100295.72;4945072;27;104199;-48
2023/12/08 07:59:52;;;;;;;3.77;2.30;;;12.30;99.90;;;13.08;47.95;100304.13;4927439;28;99935;-50
2023/12/08 08:02:18;;;;;;;7.70;3.60;;;12.70;99.90;;;12.90;45.35;100307.72;4925860;28;99141;-52
2023/12/08 08:04:44;;;;;;;3.87;2.60;;;12.60;99.90;;;12.84;47.52;100306.22;4952691;28;102113;-48
2023/12/08 08:07:09;;;;;;;5.20;3.47;;;12.40;99.90;;;12.48;47.96;100298.34;4944415;28;98659;-57
2023/12/08 08:09:35;;;;;;;8.37;4.10;;;12.00;99.90;;;12.24;48.67;100305.66;4931162;28;97256;-53
2023/12/08 08:12:02;;;;;;;10.33;5.00;;;11.60;99.90;;;12.24;47.96;100303.03;4935611;28;96832;-49
2023/12/08 08:14:28;;;;;;;5.67;3.93;;;11.60;99.90;;;12.04;48.91;100314.56;4935481;28;97512;-53
2023/12/08 08:16:57;;;;;;;6.73;4.00;;;11.40;99.90;;;11.92;48.94;100315.13;4945744;27;97474;-48
2023/12/08 08:19:23;;;;;;;11.57;6.47;;;11.40;99.90;;;11.49;49.83;100317.03;4928928;28;97266;-48
2023/12/08 08:21:49;;;;;;;8.03;4.90;;;10.90;99.90;;;11.63;50.81;100317.28;4922517;28;96989;-48
2023/12/08 08:24:15;;;;;;;13.47;5.80;;;11.00;99.90;;;11.40;49.65;100320.09;4931051;28;110676;-48
2023/12/08 08:26:44;;;;;;;12.00;6.30;;;10.90;99.90;;;11.20;50.10;100320.97;4934493;28;97228;-48
2023/12/08 08:29:09;;;;;;;6.77;4.27;;;10.70;99.90;;;11.17;52.36;100330.81;4921766;28;98488;-59
2023/12/08 08:31:36;;;;;;;11.37;5.50;;;10.50;99.90;;;11.24;51.79;100326.97;4925879;28;98751;-50
2023/12/08 08:34:03;;;;;;;2.83;1.90;;;10.60;99.90;;;11.70;51.78;100327.56;4929430;28;102171;-50
2023/12/08 08:36:30;;;;;;;3.33;1.80;;;11.20;99.90;;;12.03;50.26;100327.84;4927003;28;97439;-53
2023/12/08 08:38:56;;;;;;;5.43;3.60;;;11.70;99.90;;;11.87;50.46;100330.34;4935138;28;97305;-50
2023/12/08 08:41:23;;;;;;;7.13;4.77;;;11.50;99.90;;;11.53;49.99;100328.31;4946311;28;97247;-50
2023/12/08 08:43:50;;;;;;;6.40;3.50;;;11.10;99.90;;;11.65;50.70;100326.91;4928100;28;97348;-50
2023/12/08 08:46:16;;;;;;;5.67;3.63;;;11.00;99.90;;;11.75;50.54;100337.00;4923290;28;96902;-49
2023/12/08 08:48:43;;;;;;;6.43;3.67;;;11.20;99.90;;;11.82;50.62;100341.09;4942677;28;97604;-49
2023/12/08 08:51:10;;;;;;;3.87;2.90;;;11.30;99.90;;;11.98;49.84;100335.13;4934249;28;98361;-49
2023/12/08 08:53:36;;;;;;;3.93;2.00;;;11.50;99.90;;;12.02;51.06;100334.91;4931697;28;101316;-51
2023/12/08 08:56:03;;;;;;;10.23;5.73;;;11.40;99.90;;;11.69;49.78;100344.34;4934155;27;98684;-50
2023/12/08 08:58:29;;;;;;;3.57;2.27;;;11.30;99.90;;;11.72;51.98;100349.50;4933347;28;97395;-48
2023/12/08 09:00:55;;;;;;;3.80;2.67;;;11.10;99.90;;;11.95;50.96;100346.69;4811460;28;97317;-52
2023/12/08 09:03:21;;;;;;;2.57;1.70;;;11.50;99.90;;;12.39;50.10;100343.75;4937259;28;106708;-51
2023/12/08 09:05:47;;;;;;;3.77;2.30;;;12.10;99.90;;;12.67;49.70;100338.81;4928595;28;97459;-49
2023/12/08 09:08:13;;;;;;;8.63;4.80;;;12.50;99.90;;;12.72;46.54;100338.59;4935623;28;99957;-52
2023/12/08 09:10:40;;;;;;;7.73;4.17;;;12.80;99.90;;;12.60;48.46;100350.66;4945636;28;97755;-48
2023/12/08 09:13:06;;;;;;;9.87;6.03;;;12.40;99.90;;;11.89;49.92;100347.00;4939407;28;96990;-50
2023/12/08 09:15:32;;;;;;;12.20;5.97;;;11.60;99.90;;;11.49;50.74;100354.03;4929708;28;97182;-49
2023/12/08 09:17:58;;;;;;;5.10;3.30;;;11.00;99.90;;;11.47;52.42;100355.88;4937384;28;97011;-51
2023/12/08 09:20:24;;;;;;;9.37;5.80;;;10.80;99.90;;;10.94;52.54;100361.66;4923246;28;102236;-50
2023/12/08 09:22:51;;;;;;;12.00;5.73;;;10.40;99.90;;;10.92;53.23;100358.22;4932941;28;98145;-50
2023/12/08 09:25:21;;;;;;;9.67;5.53;;;10.30;99.90;;;10.65;53.94;100362.88;4945637;28;97359;-48
2023/12/08 09:27:47;;;;;;;10.83;5.60;;;10.10;99.90;;;10.60;54.74;100362.19;4939185;28;97462;-48
2023/12/08 09:30:13;;;;;;;5.80;3.73;;;9.90;99.90;;;10.47;55.04;100360.13;4945353;27;97627;-49
2023/12/08 09:32:39;;;;;;;9.07;5.67;;;9.80;99.90;;;10.76;54.49;100358.94;4938091;28;97104;-49
2023/12/08 09:35:05;;;;;;;9.63;5.73;;;10.10;99.90;;;10.68;53.99;100359.22;4932803;27;97188;-47
2023/12/08 09:37:31;;;;;;;8.50;5.30;;;10.10;99.90;;;10.61;55.25;100357.78;4926970;27;97685;-49
2023/12/08 09:39:57;;;;;;;5.77;2.63;;;10.00;99.90;;;11.00;54.59;100358.78;4930987;27;100677;-51
2023/12/08 09:42:39;;;;;;;7.73;4.93;;;10.40;99.90;;;10.84;54.69;100360.31;4928587;28;97480;-52
2023/12/08 09:45:05;;;;;;;4.30;3.10;;;10.30;99.90;;;11.11;54.10;100362.72;4936563;28;96981;-50
2023/12/08 09:47:35;;;;;;;5.03;2.60;;;10.50;99.90;;;11.23;53.55;100367.50;4948010;28;97076;-51
2023/12/08 09:50:06;;;;;;;8.20;5.50;;;10.70;99.90;;;11.24;53.08;100379.78;4931405;28;97365;-52
2023/12/08 09:52:36;;;;;;;8.50;4.73;;;10.70;99.90;;;11.06;53.55;100383.19;4931951;28;101516;-52
2023/12/08 09:55:04;;;;;;;9.40;5.80;;;10.50;99.90;;;10.88;54.37;100372.50;4931320;28;97304;-50
2023/12/08 09:57:33;;;;;;;6.60;4.23;;;10.30;99.90;;;11.09;54.39;100375.16;4941100;27;97179;-48
2023/12/08 10:00:09;;;;;;;11.67;5.93;;;10.40;99.90;;;11.05;53.72;100368.28;4931782;27;98233;-46
2023/12/08 10:02:35;;;;;;;5.47;2.83;;;10.50;99.90;;;11.11;53.82;100373.28;4924362;28;99786;-49
2023/12/08 10:05:02;;;;;;;2.60;2.10;;;10.50;99.90;;;11.20;54.00;100378.19;4927193;28;97341;-52
2023/12/08 10:07:31;;;;;;;4.27;3.17;;;10.60;99.90;;;11.06;54.24;100370.84;4932765;28;99309;-47